Data for 01/17/2018

Time Sea-Level Adjusted Pressure Absolute Pressure Temperature Relative Humidity Dew Point   
(mb) (inHg) (mb) (inHg) (C) (F) (%) (C) (F)
00:05 1026 30.3 855 25.25 -3.7 25.3 66 -9.3 15.3
00:10 1026 30.3 855 25.25 -3.7 25.3 67 -8.9 16
00:15 1026 30.3 855 25.25 -3.4 25.9 64 -9.3 15.3
00:20 1026 30.3 856 25.28 -3.3 26 62 -9.7 14.6
00:25 1026 30.3 856 25.28 -3 26.7 60 -9.6 14.7
00:30 1027 30.33 856 25.28 -3.5 25.7 63 -9.6 14.8
00:35 1027 30.33 856 25.28 -4.2 24.4 64 -10 14
00:40 1027 30.33 856 25.28 -5 23 65 -10.6 13
00:45 1027 30.33 856 25.28 -5.3 22.4 67 -10.5 13.1
00:50 1027 30.33 856 25.28 -5.4 22.3 68 -10.4 13.2
00:55 1027 30.33 856 25.28 -4.8 23.4 67 -10 14
01:00 1027 30.33 856 25.28 -4.6 23.8 70 -9.2 15.4
01:05 1027 30.33 856 25.28 -4.3 24.2 64 -10.1 13.9
01:10 1027 30.33 856 25.28 -3.7 25.3 62 -10 14.1
01:15 1027 30.33 856 25.28 -3.4 25.9 63 -9.3 15.2
01:20 1027 30.33 856 25.28 -3.4 25.8 63 -9.5 15
01:25 1027 30.33 856 25.28 -3.4 25.9 63 -9.5 15
01:30 1027 30.33 856 25.28 -3.5 25.7 64 -9.4 15.1
01:35 1027 30.33 856 25.28 -3.6 25.6 64 -9.3 15.2
01:40 1027 30.33 856 25.28 -3.7 25.4 64 -9.5 14.9
01:45 1027 30.33 856 25.28 -3.7 25.4 65 -9.4 15.2
01:50 1027 30.33 856 25.28 -3.5 25.8 66 -9 15.9
01:55 1027 30.33 856 25.28 -3.5 25.7 66 -9 15.8
02:00 1027 30.33 856 25.28 -3.6 25.5 68 -8.8 16.2
02:05 1027 30.33 856 25.28 -3.6 25.5 69 -8.5 16.7
02:10 1027 30.33 856 25.28 -3.7 25.3 69 -8.6 16.5
02:15 1027 30.33 856 25.28 -3.9 25 68 -8.9 15.9
02:20 1027 30.33 856 25.28 -4.1 24.6 69 -8.9 15.9
02:25 1027 30.33 856 25.28 -4 24.8 69 -8.8 16.1
02:30 1027 30.33 856 25.28 -4 24.8 68 -9 15.8
02:35 1027 30.33 856 25.28 -4.1 24.6 70 -8.9 16
02:40 1027 30.33 856 25.28 -4 24.8 68 -9.1 15.6
02:45 1027 30.33 856 25.28 -4.2 24.4 69 -9.1 15.7
02:50 1027 30.33 856 25.28 -4.5 23.8 70 -9.2 15.5
02:55 1027 30.33 856 25.28 -4.6 23.7 71 -9.2 15.5
03:00 1027 30.33 856 25.28 -4.2 24.4 69 -9.1 15.6
03:05 1027 30.33 856 25.28 -4.8 23.4 71 -9.3 15.3
03:10 1027 30.33 856 25.28 -5 23.1 70 -9.7 14.6
03:15 1027 30.33 856 25.28 -4.3 24.2 68 -9.4 15.2
03:20 1027 30.33 856 25.28 -3.5 25.7 66 -9 15.7
03:25 1027 30.33 856 25.28 -3.1 26.4 64 -8.9 16
03:30 1027 30.33 856 25.28 -4 24.8 68 -9.1 15.6
03:35 1027 30.33 856 25.28 -4.4 24 67 -9.7 14.6
03:40 1027 30.33 856 25.28 -4.8 23.4 69 -9.6 14.7
03:45 1027 30.33 856 25.28 -4.8 23.4 69 -9.6 14.8
03:50 1027 30.33 856 25.28 -4.6 23.7 69 -9.5 15
03:55 1027 30.33 856 25.28 -4.7 23.5 71 -9.3 15.3
04:00 1027 30.33 856 25.28 -4.7 23.5 71 -9.2 15.4
04:05 1027 30.33 856 25.28 -4.6 23.7 70 -9.2 15.4
04:10 1027 30.33 856 25.28 -4.3 24.2 70 -9.1 15.6
04:15 1027 30.33 856 25.28 -4.2 24.4 70 -8.9 16
04:20 1027 30.33 856 25.28 -4 24.9 68 -9 15.7
04:25 1027 30.33 856 25.28 -4.2 24.4 69 -9 15.7
04:30 1027 30.33 856 25.28 -4.7 23.5 71 -9.3 15.3
04:35 1027 30.33 856 25.28 -5 23.1 72 -9.3 15.3
04:40 1027 30.33 856 25.28 -5 23 73 -9.1 15.6
04:45 1027 30.33 856 25.28 -4.7 23.5 72 -9.1 15.7
04:50 1027 30.33 856 25.28 -4.4 24.1 71 -8.9 16
04:55 1027 30.33 856 25.28 -4.4 24 71 -8.9 16
05:00 1027 30.33 856 25.28 -4.1 24.6 71 -8.6 16.5
05:05 1027 30.33 856 25.28 -4.4 24 72 -8.7 16.3
05:10 1027 30.33 856 25.28 -4.5 23.9 72 -8.8 16.1
05:15 1027 30.33 856 25.28 -4.7 23.5 73 -8.9 16
05:20 1027 30.33 856 25.28 -4.6 23.6 72 -9 15.8
05:25 1027 30.33 856 25.28 -4.8 23.4 73 -9 15.8
05:30 1027 30.33 856 25.28 -4.5 23.9 71 -9 15.9
05:35 1027 30.33 856 25.28 -4.2 24.4 71 -8.7 16.3
05:40 1027 30.33 856 25.28 -4.3 24.2 72 -8.7 16.3
05:45 1027 30.33 856 25.28 -4.3 24.3 71 -8.7 16.3
05:50 1027 30.33 856 25.28 -4.2 24.4 71 -8.7 16.3
05:55 1027 30.33 856 25.28 -4.3 24.3 71 -8.7 16.4
06:00 1027 30.33 856 25.28 -4.4 24.1 72 -8.7 16.3
06:05 1027 30.33 856 25.28 -4.3 24.3 71 -8.8 16.2
06:10 1027 30.33 856 25.28 -4 24.8 70 -8.6 16.5
06:15 1027 30.33 856 25.28 -4.1 24.6 70 -8.8 16.2
06:20 1027 30.33 856 25.28 -4.2 24.4 71 -8.8 16.2
06:25 1027 30.33 856 25.28 -4.2 24.4 71 -8.8 16.2
06:30 1027 30.33 856 25.28 -4.1 24.6 70 -8.8 16.2
06:35 1027 30.33 856 25.28 -3.9 24.9 70 -8.6 16.5
06:40 1027 30.33 856 25.28 -3.8 25.2 71 -8.3 17
06:45 1027 30.33 856 25.28 -3.6 25.4 70 -8.3 17
06:50 1027 30.33 856 25.28 -3.8 25.1 70 -8.5 16.8
06:55 1027 30.33 856 25.28 -3.7 25.3 68 -8.8 16.2
07:00 1027 30.33 856 25.28 -3 26.6 66 -8.5 16.6
07:05 1027 30.33 856 25.28 -2.9 26.9 66 -8.4 16.9
07:10 1027 30.33 856 25.28 -2.9 26.8 66 -8.3 17
07:15 1027 30.33 856 25.28 -2.9 26.8 65 -8.5 16.8
07:20 1027 30.33 856 25.28 -2.8 27 66 -8.3 17.1
07:25 1027 30.33 856 25.28 -2.8 27 65 -8.4 16.9
07:30 1026 30.3 856 25.28 -2.5 27.5 66 -8.1 17.5
07:35 1026 30.3 856 25.28 -3 26.5 68 -8.1 17.4
07:40 1026 30.3 855 25.25 -4 24.8 71 -8.5 16.6
07:45 1026 30.3 856 25.28 -4.7 23.5 74 -8.7 16.3
07:50 1026 30.3 856 25.28 -3.6 25.5 69 -8.6 16.6
07:55 1026 30.3 856 25.28 -3.3 26 68 -8.3 17
08:00 1026 30.3 856 25.28 -3.2 26.2 66 -8.6 16.5
08:05 1026 30.3 856 25.28 -3 26.6 65 -8.6 16.5
08:10 1027 30.33 856 25.28 -2.9 26.7 66 -8.5 16.8
08:15 1027 30.33 856 25.28 -2.9 26.8 66 -8.4 16.8
08:20 1027 30.33 856 25.28 -2.9 26.7 66 -8.5 16.8
08:25 1027 30.33 856 25.28 -3 26.6 67 -8.4 16.9
08:30 1027 30.33 856 25.28 -2.8 27 65 -8.4 17
08:35 1027 30.33 856 25.28 -2.8 26.9 65 -8.5 16.8
08:40 1027 30.33 856 25.28 -2.9 26.9 65 -8.6 16.6
08:45 1027 30.33 856 25.28 -2.8 27 64 -8.7 16.3
08:50 1027 30.33 856 25.28 -2.7 27.2 63 -8.7 16.3
08:55 1027 30.33 856 25.28 -2.5 27.5 63 -8.6 16.6
09:00 1027 30.33 856 25.28 -2.3 27.8 63 -8.5 16.7
09:05 1027 30.33 856 25.28 -2.2 28.1 63 -8.2 17.2
09:10 1027 30.33 856 25.28 -2.1 28.2 63 -8.2 17.3
09:15 1027 30.33 856 25.28 -2.1 28.2 63 -8.2 17.3
09:20 1027 30.33 856 25.28 -1.9 28.5 63 -8.1 17.3
09:25 1026 30.3 856 25.28 -1.8 28.8 63 -7.9 17.7
09:30 1026 30.3 855 25.25 -1.8 28.8 63 -7.8 17.9
09:35 1026 30.3 855 25.25 -1.7 29 60 -8.4 16.8
09:40 1026 30.3 855 25.25 -1.5 29.2 61 -8.1 17.4
09:45 1026 30.3 855 25.25 -1.5 29.4 60 -8.3 17.1
09:50 1026 30.3 855 25.25 -1.4 29.5 59 -8.3 17.1
09:55 1026 30.3 855 25.25 -1.1 30.1 58 -8.2 17.2
10:00 1026 30.3 855 25.25 -0.8 30.6 57 -8.1 17.4
10:05 1026 30.3 855 25.25 0 32.1 55 -7.9 17.8
10:10 1026 30.3 855 25.25 1.1 33.9 52 -7.8 17.9
10:15 1026 30.3 855 25.25 1.9 35.4 48 -8 17.6
10:20 1026 30.3 855 25.25 2.3 36.1 48 -7.6 18.3
10:25 1026 30.3 855 25.25 2.6 36.6 47 -7.5 18.4
10:30 1026 30.3 855 25.25 2.8 37.1 47 -7.3 18.9
10:35 1026 30.3 855 25.25 2.5 36.5 50 -6.9 19.6
10:40 1026 30.3 855 25.25 2 35.5 52 -6.9 19.5
10:45 1026 30.3 855 25.25 1.5 34.6 51 -7.5 18.5
10:50 1026 30.3 855 25.25 1.2 34.1 52 -7.7 18.1
10:55 1026 30.3 855 25.25 1.1 34.1 52 -7.7 18.1
11:00 1026 30.3 855 25.25 1 33.8 52 -7.8 18
11:05 1026 30.3 855 25.25 1.2 34.2 51 -7.8 17.9
11:10 1026 30.3 855 25.25 1 33.7 51 -8 17.6
11:15 1026 30.3 855 25.25 1.7 35.1 48 -8.2 17.3
11:20 1026 30.3 855 25.25 1.3 34.4 51 -7.8 17.9
11:25 1025 30.27 855 25.25 1.2 34.1 49 -8.3 17.1
11:30 1025 30.27 855 25.25 2 35.5 48 -8 17.6
11:35 1025 30.27 854 25.22 2.4 36.3 47 -7.7 18.1
11:40 1025 30.27 854 25.22 2.6 36.8 45 -8 17.6
11:45 1025 30.27 854 25.22 3 37.4 46 -7.4 18.7
11:50 1025 30.27 854 25.22 2.7 36.9 47 -7.5 18.4
11:55 1025 30.27 854 25.22 2.4 36.3 48 -7.5 18.5
12:00 1024 30.24 854 25.22 2.2 35.9 48 -7.7 18.1
12:05 1024 30.24 853 25.19 2.5 36.6 48 -7.4 18.6
12:10 1024 30.24 853 25.19 2.3 36.2 48 -7.6 18.3
12:15 1024 30.24 853 25.19 2.5 36.5 46 -7.9 17.8
12:20 1024 30.24 853 25.19 2.9 37.2 46 -7.7 18.2
12:25 1024 30.24 853 25.19 3.4 38.1 44 -7.7 18.2
12:30 1024 30.24 853 25.19 3.9 39 43 -7.5 18.6
12:35 1024 30.24 853 25.19 4.5 40.1 40 -7.9 17.8
12:40 1024 30.24 853 25.19 5 40.9 41 -7.1 19.2
12:45 1024 30.24 853 25.19 4.9 40.9 43 -6.7 19.9
12:50 1024 30.24 853 25.19 4.2 39.6 45 -6.8 19.8
12:55 1024 30.24 853 25.19 3.4 38.2 49 -6.3 20.6
13:00 1024 30.24 853 25.19 1.8 35.2 52 -7 19.5
13:05 1024 30.24 853 25.19 1.6 34.8 52 -7.2 19.1
13:10 1024 30.24 853 25.19 2.1 35.7 52 -6.9 19.6
13:15 1024 30.24 853 25.19 2.2 35.9 52 -6.8 19.8
13:20 1024 30.24 853 25.19 1.6 34.8 54 -6.8 19.7
13:25 1023 30.21 853 25.19 1.2 34.2 54 -7.1 19.3
13:30 1024 30.24 853 25.19 0.8 33.5 55 -7.3 18.8
13:35 1023 30.21 853 25.19 0.9 33.5 54 -7.4 18.7
13:40 1023 30.21 853 25.19 1 33.8 54 -7.3 18.8
13:45 1023 30.21 852 25.16 1.2 34.2 53 -7.4 18.7
13:50 1023 30.21 852 25.16 1.2 34.2 53 -7.3 18.9
13:55 1023 30.21 852 25.16 1.4 34.6 52 -7.3 18.8
14:00 1023 30.21 852 25.16 1.4 34.5 54 -6.9 19.6
14:05 1023 30.21 852 25.16 1.2 34.2 54 -7.2 19.1
14:10 1023 30.21 852 25.16 1.5 34.6 52 -7.4 18.7
14:15 1023 30.21 852 25.16 1.8 35.2 51 -7.3 18.9
14:20 1023 30.21 852 25.16 1.9 35.5 51 -7 19.3
14:25 1023 30.21 852 25.16 1.6 34.8 52 -7.2 19.1
14:30 1023 30.21 852 25.16 1.4 34.6 52 -7.4 18.8
14:35 1023 30.21 852 25.16 1.8 35.2 51 -7.4 18.8
14:40 1023 30.21 852 25.16 1.7 35.1 50 -7.5 18.5
14:45 1023 30.21 852 25.16 1.8 35.2 51 -7.3 18.9
14:50 1023 30.21 852 25.16 1.7 35.1 52 -7.1 19.1
14:55 1023 30.21 852 25.16 1.8 35.2 53 -6.8 19.8
15:00 1023 30.21 852 25.16 1.8 35.2 53 -6.7 19.9
15:05 1023 30.21 852 25.16 1.7 35 54 -6.8 19.8
15:10 1023 30.21 852 25.16 1.6 34.9 54 -6.8 19.7
15:15 1023 30.21 852 25.16 1.5 34.6 54 -6.9 19.6
15:20 1023 30.21 852 25.16 1.2 34.2 55 -6.9 19.6
15:25 1023 30.21 852 25.16 1.1 34 56 -6.8 19.8
15:30 1023 30.21 852 25.16 1 33.9 56 -6.7 19.9
15:35 1023 30.21 852 25.16 1.1 34 55 -7 19.3
15:40 1023 30.21 852 25.16 1.1 34 56 -6.7 19.9
15:45 1023 30.21 852 25.16 1.1 34 57 -6.5 20.3
15:50 1023 30.21 852 25.16 1.1 34 58 -6.2 20.9
15:55 1023 30.21 852 25.16 1 33.8 59 -6.2 20.9
16:00 1023 30.21 852 25.16 0.7 33.3 60 -6.1 21
16:05 1023 30.21 852 25.16 0.4 32.8 61 -6.3 20.7
16:10 1023 30.21 852 25.16 0.1 32.2 63 -6.2 20.8
16:15 1023 30.21 852 25.16 -0.2 31.6 63 -6.3 20.6
16:20 1023 30.21 852 25.16 -0.7 30.8 65 -6.5 20.3
16:25 1022 30.18 852 25.16 -0.9 30.3 66 -6.5 20.2
16:30 1022 30.18 851 25.13 -1.3 29.7 67 -6.7 20
16:35 1022 30.18 851 25.13 -1.4 29.5 67 -6.8 19.8
16:40 1022 30.18 851 25.13 -1.3 29.6 66 -6.9 19.6
16:45 1022 30.18 851 25.13 -1.3 29.7 64 -7.1 19.1
16:50 1022 30.18 851 25.13 -1.1 30 63 -7.2 19
16:55 1022 30.18 851 25.13 -1 30.3 63 -7.2 19.1
17:00 1022 30.18 851 25.13 -0.8 30.5 61 -7.4 18.8
17:05 1022 30.18 851 25.13 -0.8 30.6 62 -7.2 19.1
17:10 1022 30.18 851 25.13 -0.9 30.5 61 -7.4 18.8
17:15 1022 30.18 851 25.13 -0.9 30.4 61 -7.4 18.6
17:20 1022 30.18 851 25.13 -0.9 30.4 60 -7.8 18
17:25 1022 30.18 851 25.13 -0.8 30.6 61 -7.4 18.7
17:30 1022 30.18 851 25.13 -0.7 30.8 61 -7.4 18.7
17:35 1022 30.18 851 25.13 -0.6 31 60 -7.4 18.7
17:40 1022 30.18 851 25.13 -0.5 31.1 60 -7.4 18.6
17:45 1022 30.18 851 25.13 -0.5 31.2 60 -7.2 19
17:50 1022 30.18 851 25.13 -0.6 31 61 -7.2 19
17:55 1022 30.18 851 25.13 -0.9 30.5 64 -6.9 19.5
18:00 1022 30.18 851 25.13 -1.2 29.8 65 -6.9 19.6
18:05 1022 30.18 851 25.13 -1.5 29.3 67 -6.8 19.7
18:10 1022 30.18 851 25.13 -1.7 28.9 66 -7.2 19.1
18:15 1022 30.18 851 25.13 -1.6 29.2 64 -7.6 18.4
18:20 1022 30.18 851 25.13 -0.7 30.8 59 -7.6 18.2
18:25 1022 30.18 851 25.13 -0.6 31 61 -7.1 19.2
18:30 1022 30.18 851 25.13 -0.7 30.8 61 -7.4 18.7
18:35 1022 30.18 851 25.13 -0.7 30.7 62 -7.2 19
18:40 1022 30.18 851 25.13 -1 30.2 63 -7.1 19.3
18:45 1022 30.18 851 25.13 -0.8 30.6 63 -6.9 19.6
18:50 1022 30.18 851 25.13 -0.9 30.4 64 -6.9 19.6
18:55 1021 30.15 851 25.13 -0.7 30.7 60 -7.5 18.5
19:00 1021 30.15 851 25.13 -0.2 31.7 57 -7.8 18
19:05 1021 30.15 850 25.1 0.3 32.6 55 -7.6 18.2
19:10 1021 30.15 850 25.1 0 32 58 -7.3 18.8
19:15 1021 30.15 850 25.1 -0.5 31.1 60 -7.4 18.6
19:20 1021 30.15 850 25.1 -0.6 30.9 60 -7.5 18.4
19:25 1021 30.15 850 25.1 -0.6 31 60 -7.5 18.6
19:30 1021 30.15 850 25.1 -0.1 31.8 58 -7.4 18.7
19:35 1021 30.15 850 25.1 0.1 32.2 57 -7.5 18.5
19:40 1021 30.15 850 25.1 0.6 33.1 53 -7.8 17.9
19:45 1021 30.15 850 25.1 0.8 33.4 54 -7.5 18.6
19:50 1021 30.15 850 25.1 0.3 32.6 57 -7.3 18.9
19:55 1021 30.15 850 25.1 -0 32 57 -7.6 18.3
20:00 1021 30.15 850 25.1 0 32.1 56 -7.7 18.1
20:05 1021 30.15 850 25.1 0.2 32.4 53 -8.2 17.3
20:10 1021 30.15 850 25.1 0.8 33.4 51 -8.2 17.2
20:15 1021 30.15 850 25.1 1 33.8 50 -8.2 17.2
20:20 1021 30.15 850 25.1 0.6 33.2 54 -7.7 18.2
20:25 1021 30.15 850 25.1 0 32.1 58 -7.3 18.9
20:30 1021 30.15 850 25.1 -0.5 31.1 60 -7.3 18.9
20:35 1021 30.15 850 25.1 -0.8 30.5 63 -7.1 19.3
20:40 1021 30.15 850 25.1 -1.4 29.5 65 -7 19.3
20:45 1021 30.15 850 25.1 -1.6 29.1 67 -7 19.4
20:50 1021 30.15 850 25.1 -1.6 29 65 -7.4 18.8
20:55 1021 30.15 850 25.1 -1.2 29.9 60 -7.9 17.8
21:00 1021 30.15 850 25.1 -0.5 31.2 59 -7.5 18.5
21:05 1021 30.15 850 25.1 -0.4 31.3 58 -7.6 18.4
21:10 1021 30.15 850 25.1 -0.4 31.4 60 -7.2 19.1
21:15 1021 30.15 850 25.1 -0.9 30.3 64 -7 19.5
21:20 1021 30.15 850 25.1 -1.3 29.7 60 -8 17.5
21:25 1021 30.15 850 25.1 -0.5 31.1 57 -7.9 17.7
21:30 1021 30.15 850 25.1 -0.2 31.6 55 -8.1 17.4
21:35 1021 30.15 850 25.1 0 32 55 -8 17.6
21:40 1021 30.15 850 25.1 0 32 55 -8 17.5
21:45 1021 30.15 850 25.1 -0.4 31.3 57 -7.9 17.7
21:50 1021 30.15 850 25.1 -0.6 30.8 57 -8.2 17.2
21:55 1021 30.15 850 25.1 -0.7 30.7 57 -8.1 17.3
22:00 1021 30.15 850 25.1 -0.9 30.5 57 -8.4 16.9
22:05 1020 30.12 850 25.1 -0.5 31.1 54 -8.8 16.2
22:10 1020 30.12 850 25.1 0 32 53 -8.4 16.8
22:15 1020 30.12 850 25.1 0.1 32.1 53 -8.3 17
22:20 1020 30.12 850 25.1 0.1 32.1 54 -8.2 17.2
22:25 1020 30.12 850 25.1 -0.1 31.9 54 -8.3 17.1
22:30 1020 30.12 849 25.07 -0.4 31.3 56 -8.2 17.2
22:35 1020 30.12 849 25.07 -0.6 30.9 55 -8.6 16.5
22:40 1020 30.12 849 25.07 -0.7 30.7 56 -8.5 16.7
22:45 1020 30.12 849 25.07 -0.8 30.6 55 -8.7 16.3
22:50 1020 30.12 849 25.07 -0.2 31.7 54 -8.4 16.9
22:55 1020 30.12 849 25.07 -0.2 31.7 55 -8.2 17.2
23:00 1020 30.12 849 25.07 -0.2 31.7 53 -8.7 16.3
23:05 1020 30.12 849 25.07 -0.1 31.8 52 -8.8 16.2
23:10 1020 30.12 849 25.07 0.4 32.7 50 -8.9 16
23:15 1020 30.12 849 25.07 0.8 33.4 51 -8.3 17.1
23:20 1020 30.12 849 25.07 0.8 33.4 50 -8.5 16.7
23:25 1020 30.12 849 25.07 1.1 33.9 49 -8.6 16.5
23:30 1020 30.12 849 25.07 1 33.8 51 -8 17.5
23:35 1019 30.09 849 25.07 0.8 33.5 46 -9.5 14.9
23:40 1019 30.09 848 25.04 2.1 35.7 45 -8.5 16.6
23:45 1019 30.09 848 25.04 2.1 35.7 48 -7.9 17.7
23:50 1019 30.09 848 25.04 2.1 35.7 47 -8.1 17.5
23:55 1019 30.09 848 25.04 1.9 35.5 48 -8 17.7
24:00 1019 30.09 848 25.04 2 35.5 48 -8 17.6